sensor_id;sensor_type;location;lat;lon;timestamp;pressure;altitude;pressure_sealevel;temperature
34023;BMP280;20673;48.980;8.138;2022-09-03T00:02:18;99577.75;;;17.90
34023;BMP280;20673;48.980;8.138;2022-09-03T00:10:45;99579.72;;;17.87
34023;BMP280;20673;48.980;8.138;2022-09-03T00:13:21;99576.90;;;17.85
34023;BMP280;20673;48.980;8.138;2022-09-03T00:15:47;99577.84;;;17.82
34023;BMP280;20673;48.980;8.138;2022-09-03T00:18:19;99579.78;;;17.84
34023;BMP280;20673;48.980;8.138;2022-09-03T00:20:57;99580.14;;;17.81
34023;BMP280;20673;48.980;8.138;2022-09-03T00:23:27;99578.58;;;17.83
34023;BMP280;20673;48.980;8.138;2022-09-03T00:26:16;99581.08;;;17.79
34023;BMP280;20673;48.980;8.138;2022-09-03T00:28:56;99583.03;;;17.71
34023;BMP280;20673;48.980;8.138;2022-09-03T00:31:44;99586.89;;;17.65
34023;BMP280;20673;48.980;8.138;2022-09-03T00:34:33;99591.43;;;17.61
34023;BMP280;20673;48.980;8.138;2022-09-03T00:36:57;99594.04;;;17.52
34023;BMP280;20673;48.980;8.138;2022-09-03T00:39:26;99598.17;;;17.44
34023;BMP280;20673;48.980;8.138;2022-09-03T00:53:58;99587.28;;;16.97
34023;BMP280;20673;48.980;8.138;2022-09-03T00:56:50;99588.21;;;16.91
34023;BMP280;20673;48.980;8.138;2022-09-03T00:59:35;99586.28;;;16.93
34023;BMP280;20673;48.980;8.138;2022-09-03T01:07:48;99586.60;;;16.69
34023;BMP280;20673;48.980;8.138;2022-09-03T01:13:17;99589.62;;;16.56
34023;BMP280;20673;48.980;8.138;2022-09-03T01:19:44;99596.84;;;16.52
34023;BMP280;20673;48.980;8.138;2022-09-03T01:25:37;99604.33;;;16.40
34023;BMP280;20673;48.980;8.138;2022-09-03T01:37:03;99598.86;;;16.36
34023;BMP280;20673;48.980;8.138;2022-09-03T01:42:32;99610.56;;;16.31
34023;BMP280;20673;48.980;8.138;2022-09-03T01:48:11;99615.15;;;16.27
34023;BMP280;20673;48.980;8.138;2022-09-03T01:51:17;99617.85;;;16.32
34023;BMP280;20673;48.980;8.138;2022-09-03T02:02:21;99601.40;;;16.35
34023;BMP280;20673;48.980;8.138;2022-09-03T02:07:48;99597.22;;;16.36
34023;BMP280;20673;48.980;8.138;2022-09-03T02:10:21;99595.40;;;16.37
34023;BMP280;20673;48.980;8.138;2022-09-03T02:12:55;99599.00;;;16.40
34023;BMP280;20673;48.980;8.138;2022-09-03T02:15:24;99595.71;;;16.43
34023;BMP280;20673;48.980;8.138;2022-09-03T02:17:56;99599.20;;;16.44
34023;BMP280;20673;48.980;8.138;2022-09-03T02:20:27;99595.86;;;16.51
34023;BMP280;20673;48.980;8.138;2022-09-03T02:22:56;99600.33;;;16.49
34023;BMP280;20673;48.980;8.138;2022-09-03T02:25:31;99600.68;;;16.53
34023;BMP280;20673;48.980;8.138;2022-09-03T02:27:59;99600.62;;;16.54
34023;BMP280;20673;48.980;8.138;2022-09-03T02:30:25;99599.75;;;16.53
34023;BMP280;20673;48.980;8.138;2022-09-03T02:32:52;99591.60;;;16.50
34023;BMP280;20673;48.980;8.138;2022-09-03T02:35:18;99599.29;;;16.48
34023;BMP280;20673;48.980;8.138;2022-09-03T02:37:45;99595.70;;;16.54
34023;BMP280;20673;48.980;8.138;2022-09-03T02:40:11;99588.36;;;16.54
34023;BMP280;20673;48.980;8.138;2022-09-03T02:42:37;99591.39;;;16.59
34023;BMP280;20673;48.980;8.138;2022-09-03T02:45:18;99592.26;;;16.63
34023;BMP280;20673;48.980;8.138;2022-09-03T02:47:39;99590.90;;;16.64
34023;BMP280;20673;48.980;8.138;2022-09-03T02:50:08;99598.36;;;16.60
34023;BMP280;20673;48.980;8.138;2022-09-03T02:52:35;99598.72;;;16.63
34023;BMP280;20673;48.980;8.138;2022-09-03T02:55:01;99600.03;;;16.60
34023;BMP280;20673;48.980;8.138;2022-09-03T02:57:27;99600.17;;;16.60
34023;BMP280;20673;48.980;8.138;2022-09-03T02:59:53;99598.96;;;16.59
34023;BMP280;20673;48.980;8.138;2022-09-03T03:02:20;99591.67;;;16.55
34023;BMP280;20673;48.980;8.138;2022-09-03T03:04:46;99593.25;;;16.51
34023;BMP280;20673;48.980;8.138;2022-09-03T03:07:12;99593.14;;;16.55
34023;BMP280;20673;48.980;8.138;2022-09-03T03:09:38;99592.29;;;16.46
34023;BMP280;20673;48.980;8.138;2022-09-03T03:12:05;99589.09;;;16.45
34023;BMP280;20673;48.980;8.138;2022-09-03T03:14:32;99586.11;;;16.41
34023;BMP280;20673;48.980;8.138;2022-09-03T03:16:58;99586.33;;;16.36
34023;BMP280;20673;48.980;8.138;2022-09-03T03:19:24;99594.36;;;16.35
34023;BMP280;20673;48.980;8.138;2022-09-03T03:21:50;99598.07;;;16.36
34023;BMP280;20673;48.980;8.138;2022-09-03T03:24:16;99601.06;;;16.35
34023;BMP280;20673;48.980;8.138;2022-09-03T03:26:42;99601.62;;;16.34
34023;BMP280;20673;48.980;8.138;2022-09-03T03:29:15;99598.50;;;16.35
34023;BMP280;20673;48.980;8.138;2022-09-03T03:31:44;99605.54;;;16.33
34023;BMP280;20673;48.980;8.138;2022-09-03T03:34:10;99608.17;;;16.34
34023;BMP280;20673;48.980;8.138;2022-09-03T03:36:36;99605.11;;;16.36
34023;BMP280;20673;48.980;8.138;2022-09-03T03:39:03;99609.90;;;16.40
34023;BMP280;20673;48.980;8.138;2022-09-03T03:41:34;99620.57;;;16.45
34023;BMP280;20673;48.980;8.138;2022-09-03T03:44:04;99616.31;;;16.44
34023;BMP280;20673;48.980;8.138;2022-09-03T03:46:39;99613.25;;;16.43
34023;BMP280;20673;48.980;8.138;2022-09-03T03:49:03;99619.36;;;16.43
34023;BMP280;20673;48.980;8.138;2022-09-03T03:51:32;99630.98;;;16.43
34023;BMP280;20673;48.980;8.138;2022-09-03T03:53:59;99631.17;;;16.43
34023;BMP280;20673;48.980;8.138;2022-09-03T03:56:26;99636.53;;;16.44
34023;BMP280;20673;48.980;8.138;2022-09-03T03:58:52;99641.29;;;16.45
34023;BMP280;20673;48.980;8.138;2022-09-03T04:01:22;99644.67;;;16.46
34023;BMP280;20673;48.980;8.138;2022-09-03T04:03:49;99645.76;;;16.48
34023;BMP280;20673;48.980;8.138;2022-09-03T04:06:18;99645.70;;;16.36
34023;BMP280;20673;48.980;8.138;2022-09-03T04:08:46;99646.89;;;16.30
34023;BMP280;20673;48.980;8.138;2022-09-03T04:11:17;99643.59;;;16.19
34023;BMP280;20673;48.980;8.138;2022-09-03T04:13:45;99643.93;;;16.20
34023;BMP280;20673;48.980;8.138;2022-09-03T04:16:20;99646.47;;;16.18
34023;BMP280;20673;48.980;8.138;2022-09-03T04:18:47;99651.36;;;16.19
34023;BMP280;20673;48.980;8.138;2022-09-03T04:21:19;99649.75;;;16.19
34023;BMP280;20673;48.980;8.138;2022-09-03T04:23:47;99653.48;;;16.15
34023;BMP280;20673;48.980;8.138;2022-09-03T04:26:17;99652.56;;;16.14
34023;BMP280;20673;48.980;8.138;2022-09-03T04:28:44;99650.54;;;16.18
34023;BMP280;20673;48.980;8.138;2022-09-03T04:31:14;99649.58;;;16.17
34023;BMP280;20673;48.980;8.138;2022-09-03T04:33:41;99650.03;;;16.20
34023;BMP280;20673;48.980;8.138;2022-09-03T04:36:24;99648.94;;;16.23
34023;BMP280;20673;48.980;8.138;2022-09-03T04:38:50;99648.18;;;16.28
34023;BMP280;20673;48.980;8.138;2022-09-03T04:41:24;99647.85;;;16.28
34023;BMP280;20673;48.980;8.138;2022-09-03T04:43:53;99647.42;;;16.31
34023;BMP280;20673;48.980;8.138;2022-09-03T04:46:22;99652.96;;;16.35
34023;BMP280;20673;48.980;8.138;2022-09-03T04:48:53;99647.83;;;16.36
34023;BMP280;20673;48.980;8.138;2022-09-03T04:51:25;99649.76;;;16.35
34023;BMP280;20673;48.980;8.138;2022-09-03T04:53:58;99661.29;;;16.33
34023;BMP280;20673;48.980;8.138;2022-09-03T04:56:29;99653.18;;;16.37
34023;BMP280;20673;48.980;8.138;2022-09-03T04:59:06;99651.79;;;16.37
34023;BMP280;20673;48.980;8.138;2022-09-03T05:01:33;99655.42;;;16.36
34023;BMP280;20673;48.980;8.138;2022-09-03T05:04:00;99660.83;;;16.36
34023;BMP280;20673;48.980;8.138;2022-09-03T05:06:29;99664.24;;;16.33
34023;BMP280;20673;48.980;8.138;2022-09-03T05:08:57;99667.39;;;16.25
34023;BMP280;20673;48.980;8.138;2022-09-03T05:11:25;99668.73;;;16.23
34023;BMP280;20673;48.980;8.138;2022-09-03T05:13:54;99675.37;;;16.21
34023;BMP280;20673;48.980;8.138;2022-09-03T05:16:22;99669.69;;;16.23
34023;BMP280;20673;48.980;8.138;2022-09-03T05:18:52;99676.21;;;16.21
34023;BMP280;20673;48.980;8.138;2022-09-03T05:21:19;99675.81;;;16.18
34023;BMP280;20673;48.980;8.138;2022-09-03T05:23:48;99666.22;;;16.22
34023;BMP280;20673;48.980;8.138;2022-09-03T05:26:23;99677.47;;;16.19
34023;BMP280;20673;48.980;8.138;2022-09-03T05:28:56;99681.47;;;16.33
34023;BMP280;20673;48.980;8.138;2022-09-03T05:31:25;99684.37;;;16.29
34023;BMP280;20673;48.980;8.138;2022-09-03T05:33:55;99686.51;;;16.37
34023;BMP280;20673;48.980;8.138;2022-09-03T05:36:31;99675.65;;;16.35
34023;BMP280;20673;48.980;8.138;2022-09-03T05:38:54;99678.99;;;16.28
34023;BMP280;20673;48.980;8.138;2022-09-03T05:41:21;99683.65;;;16.32
34023;BMP280;20673;48.980;8.138;2022-09-03T05:43:51;99684.59;;;16.38
34023;BMP280;20673;48.980;8.138;2022-09-03T05:46:21;99688.81;;;16.45
34023;BMP280;20673;48.980;8.138;2022-09-03T05:48:49;99685.73;;;16.51
34023;BMP280;20673;48.980;8.138;2022-09-03T05:51:17;99694.70;;;16.45
34023;BMP280;20673;48.980;8.138;2022-09-03T05:53:46;99698.47;;;16.47
34023;BMP280;20673;48.980;8.138;2022-09-03T05:56:22;99690.14;;;16.48
34023;BMP280;20673;48.980;8.138;2022-09-03T05:58:52;99690.18;;;16.43
34023;BMP280;20673;48.980;8.138;2022-09-03T06:01:24;99679.01;;;16.44
34023;BMP280;20673;48.980;8.138;2022-09-03T06:04:03;99655.72;;;16.40
34023;BMP280;20673;48.980;8.138;2022-09-03T06:06:33;99643.53;;;16.45
34023;BMP280;20673;48.980;8.138;2022-09-03T06:09:06;99663.75;;;16.51
34023;BMP280;20673;48.980;8.138;2022-09-03T06:11:35;99688.56;;;16.61
34023;BMP280;20673;48.980;8.138;2022-09-03T06:14:05;99691.11;;;16.64
34023;BMP280;20673;48.980;8.138;2022-09-03T06:16:34;99686.06;;;16.67
34023;BMP280;20673;48.980;8.138;2022-09-03T06:19:02;99693.00;;;16.71
34023;BMP280;20673;48.980;8.138;2022-09-03T06:21:28;99702.26;;;16.73
34023;BMP280;20673;48.980;8.138;2022-09-03T06:23:56;99712.84;;;16.80
34023;BMP280;20673;48.980;8.138;2022-09-03T06:26:24;99718.92;;;16.87
34023;BMP280;20673;48.980;8.138;2022-09-03T06:28:50;99714.86;;;16.93
34023;BMP280;20673;48.980;8.138;2022-09-03T06:31:18;99701.67;;;17.04
34023;BMP280;20673;48.980;8.138;2022-09-03T06:33:46;99703.87;;;17.07
34023;BMP280;20673;48.980;8.138;2022-09-03T06:36:16;99705.63;;;17.12
34023;BMP280;20673;48.980;8.138;2022-09-03T06:38:43;99716.61;;;17.13
34023;BMP280;20673;48.980;8.138;2022-09-03T06:41:17;99717.83;;;17.11
34023;BMP280;20673;48.980;8.138;2022-09-03T06:43:48;99722.15;;;17.18
34023;BMP280;20673;48.980;8.138;2022-09-03T06:46:18;99732.01;;;17.13
34023;BMP280;20673;48.980;8.138;2022-09-03T06:48:45;99729.55;;;17.06
34023;BMP280;20673;48.980;8.138;2022-09-03T06:51:21;99725.92;;;17.09
34023;BMP280;20673;48.980;8.138;2022-09-03T06:53:50;99724.78;;;17.12
34023;BMP280;20673;48.980;8.138;2022-09-03T06:56:19;99727.79;;;17.16
34023;BMP280;20673;48.980;8.138;2022-09-03T06:58:56;99733.00;;;17.20
34023;BMP280;20673;48.980;8.138;2022-09-03T07:01:26;99732.45;;;17.23
34023;BMP280;20673;48.980;8.138;2022-09-03T07:04:02;99733.47;;;17.23
34023;BMP280;20673;48.980;8.138;2022-09-03T07:06:33;99735.26;;;17.18
34023;BMP280;20673;48.980;8.138;2022-09-03T07:09:02;99746.67;;;17.22
34023;BMP280;20673;48.980;8.138;2022-09-03T07:11:30;99767.42;;;17.21
34023;BMP280;20673;48.980;8.138;2022-09-03T07:13:59;99761.92;;;17.19
34023;BMP280;20673;48.980;8.138;2022-09-03T07:16:29;99754.54;;;17.20
34023;BMP280;20673;48.980;8.138;2022-09-03T07:18:56;99753.25;;;17.20
34023;BMP280;20673;48.980;8.138;2022-09-03T07:21:25;99761.25;;;17.15
34023;BMP280;20673;48.980;8.138;2022-09-03T07:23:54;99762.43;;;17.16
34023;BMP280;20673;48.980;8.138;2022-09-03T07:26:30;99763.39;;;17.14
34023;BMP280;20673;48.980;8.138;2022-09-03T07:28:58;99762.95;;;17.13
34023;BMP280;20673;48.980;8.138;2022-09-03T07:31:35;99761.85;;;17.14
34023;BMP280;20673;48.980;8.138;2022-09-03T07:34:06;99754.76;;;17.15
34023;BMP280;20673;48.980;8.138;2022-09-03T07:36:45;99749.54;;;17.18
34023;BMP280;20673;48.980;8.138;2022-09-03T07:39:14;99735.64;;;17.21
34023;BMP280;20673;48.980;8.138;2022-09-03T07:41:41;99724.01;;;17.31
34023;BMP280;20673;48.980;8.138;2022-09-03T07:44:14;99726.68;;;17.30
34023;BMP280;20673;48.980;8.138;2022-09-03T07:46:41;99726.54;;;17.45
34023;BMP280;20673;48.980;8.138;2022-09-03T07:49:08;99722.12;;;17.45
34023;BMP280;20673;48.980;8.138;2022-09-03T07:51:37;99723.05;;;17.55
34023;BMP280;20673;48.980;8.138;2022-09-03T07:54:07;99716.48;;;17.67
34023;BMP280;20673;48.980;8.138;2022-09-03T07:56:38;99708.43;;;17.74
34023;BMP280;20673;48.980;8.138;2022-09-03T07:59:05;99709.53;;;17.83
34023;BMP280;20673;48.980;8.138;2022-09-03T08:01:33;99718.36;;;17.92
34023;BMP280;20673;48.980;8.138;2022-09-03T08:04:00;99722.96;;;18.05
34023;BMP280;20673;48.980;8.138;2022-09-03T08:06:29;99723.43;;;18.21
34023;BMP280;20673;48.980;8.138;2022-09-03T08:09:03;99718.86;;;18.29
34023;BMP280;20673;48.980;8.138;2022-09-03T08:11:29;99715.68;;;18.47
34023;BMP280;20673;48.980;8.138;2022-09-03T08:13:59;99721.30;;;18.56
34023;BMP280;20673;48.980;8.138;2022-09-03T08:16:38;99722.29;;;18.64
34023;BMP280;20673;48.980;8.138;2022-09-03T08:19:01;99722.92;;;18.87
34023;BMP280;20673;48.980;8.138;2022-09-03T08:21:28;99731.09;;;19.10
34023;BMP280;20673;48.980;8.138;2022-09-03T08:23:56;99729.54;;;19.35
34023;BMP280;20673;48.980;8.138;2022-09-03T08:26:24;99729.18;;;19.50
34023;BMP280;20673;48.980;8.138;2022-09-03T08:28:51;99733.84;;;19.64
34023;BMP280;20673;48.980;8.138;2022-09-03T08:31:22;99739.11;;;19.80
34023;BMP280;20673;48.980;8.138;2022-09-03T08:33:52;99740.73;;;19.88
34023;BMP280;20673;48.980;8.138;2022-09-03T08:36:23;99753.54;;;19.83
34023;BMP280;20673;48.980;8.138;2022-09-03T08:38:51;99757.92;;;19.80
34023;BMP280;20673;48.980;8.138;2022-09-03T08:50:21;99762.08;;;19.42
34023;BMP280;20673;48.980;8.138;2022-09-03T08:52:54;99765.44;;;19.51
34023;BMP280;20673;48.980;8.138;2022-09-03T08:58:26;99768.70;;;19.53
34023;BMP280;20673;48.980;8.138;2022-09-03T09:15:29;99776.85;;;20.33
34023;BMP280;20673;48.980;8.138;2022-09-03T09:21:08;99788.25;;;20.24
34023;BMP280;20673;48.980;8.138;2022-09-03T09:23:47;99787.58;;;20.48
34023;BMP280;20673;48.980;8.138;2022-09-03T09:26:20;99784.39;;;20.66
34023;BMP280;20673;48.980;8.138;2022-09-03T09:29:00;99780.87;;;20.86
34023;BMP280;20673;48.980;8.138;2022-09-03T09:31:27;99772.67;;;21.14
34023;BMP280;20673;48.980;8.138;2022-09-03T09:34:05;99772.20;;;21.50
34023;BMP280;20673;48.980;8.138;2022-09-03T09:36:48;99768.48;;;22.60
34023;BMP280;20673;48.980;8.138;2022-09-03T09:39:14;99759.66;;;23.21
34023;BMP280;20673;48.980;8.138;2022-09-03T09:41:41;99757.59;;;23.16
34023;BMP280;20673;48.980;8.138;2022-09-03T09:44:19;99763.01;;;22.71
34023;BMP280;20673;48.980;8.138;2022-09-03T09:46:46;99766.70;;;23.44
34023;BMP280;20673;48.980;8.138;2022-09-03T09:52:15;99746.82;;;22.74
34023;BMP280;20673;48.980;8.138;2022-09-03T09:54:44;99752.47;;;22.73
34023;BMP280;20673;48.980;8.138;2022-09-03T09:57:25;99753.72;;;22.65
34023;BMP280;20673;48.980;8.138;2022-09-03T09:59:45;99753.08;;;22.66
34023;BMP280;20673;48.980;8.138;2022-09-03T10:02:18;99748.56;;;22.44
34023;BMP280;20673;48.980;8.138;2022-09-03T10:04:42;99748.53;;;22.41
34023;BMP280;20673;48.980;8.138;2022-09-03T10:07:29;99753.76;;;22.40
34023;BMP280;20673;48.980;8.138;2022-09-03T10:10:15;99755.69;;;22.45
34023;BMP280;20673;48.980;8.138;2022-09-03T10:15:41;99765.05;;;22.30
34023;BMP280;20673;48.980;8.138;2022-09-03T10:26:53;99765.44;;;22.23
34023;BMP280;20673;48.980;8.138;2022-09-03T10:29:22;99767.22;;;22.49
34023;BMP280;20673;48.980;8.138;2022-09-03T10:32:29;99763.54;;;22.80
34023;BMP280;20673;48.980;8.138;2022-09-03T10:35:29;99768.76;;;22.76
34023;BMP280;20673;48.980;8.138;2022-09-03T10:38:33;99766.40;;;22.98
34023;BMP280;20673;48.980;8.138;2022-09-03T10:41:12;99764.31;;;22.95
34023;BMP280;20673;48.980;8.138;2022-09-03T10:43:57;99765.86;;;22.97
34023;BMP280;20673;48.980;8.138;2022-09-03T10:46:33;99766.05;;;23.00
34023;BMP280;20673;48.980;8.138;2022-09-03T10:49:29;99775.24;;;23.07
34023;BMP280;20673;48.980;8.138;2022-09-03T10:52:02;99775.95;;;23.61
34023;BMP280;20673;48.980;8.138;2022-09-03T10:54:42;99772.36;;;24.00
34023;BMP280;20673;48.980;8.138;2022-09-03T11:00:12;99764.97;;;24.42
34023;BMP280;20673;48.980;8.138;2022-09-03T11:03:27;99769.11;;;25.29
34023;BMP280;20673;48.980;8.138;2022-09-03T11:06:12;99759.72;;;25.95
34023;BMP280;20673;48.980;8.138;2022-09-03T11:08:52;99753.58;;;26.00
34023;BMP280;20673;48.980;8.138;2022-09-03T11:11:35;99755.90;;;26.52
34023;BMP280;20673;48.980;8.138;2022-09-03T11:14:12;99743.14;;;26.78
34023;BMP280;20673;48.980;8.138;2022-09-03T11:16:57;99748.26;;;26.59
34023;BMP280;20673;48.980;8.138;2022-09-03T11:19:24;99742.56;;;26.03
34023;BMP280;20673;48.980;8.138;2022-09-03T11:21:50;99751.14;;;25.17
34023;BMP280;20673;48.980;8.138;2022-09-03T11:24:24;99751.10;;;25.04
34023;BMP280;20673;48.980;8.138;2022-09-03T11:27:12;99755.48;;;25.88
34023;BMP280;20673;48.980;8.138;2022-09-03T11:29:56;99746.33;;;26.24
34023;BMP280;20673;48.980;8.138;2022-09-03T11:32:46;99739.26;;;26.65
34023;BMP280;20673;48.980;8.138;2022-09-03T11:35:25;99736.62;;;26.67
34023;BMP280;20673;48.980;8.138;2022-09-03T11:38:33;99739.61;;;27.55
34023;BMP280;20673;48.980;8.138;2022-09-03T11:40:37;99727.40;;;27.20
34023;BMP280;20673;48.980;8.138;2022-09-03T11:43:23;99736.78;;;27.36
34023;BMP280;20673;48.980;8.138;2022-09-03T11:45:38;99733.73;;;26.82
34023;BMP280;20673;48.980;8.138;2022-09-03T11:48:43;99735.93;;;26.67
34023;BMP280;20673;48.980;8.138;2022-09-03T11:51:33;99742.04;;;27.31
34023;BMP280;20673;48.980;8.138;2022-09-03T11:56:34;99726.13;;;27.57
34023;BMP280;20673;48.980;8.138;2022-09-03T11:59:15;99714.79;;;27.25
34023;BMP280;20673;48.980;8.138;2022-09-03T12:16:13;99718.31;;;27.67
34023;BMP280;20673;48.980;8.138;2022-09-03T12:18:40;99716.70;;;26.69
34023;BMP280;20673;48.980;8.138;2022-09-03T12:21:09;99719.90;;;26.52
34023;BMP280;20673;48.980;8.138;2022-09-03T12:23:49;99728.84;;;26.57
34023;BMP280;20673;48.980;8.138;2022-09-03T12:26:22;99734.72;;;26.96
34023;BMP280;20673;48.980;8.138;2022-09-03T12:28:58;99720.62;;;26.88
34023;BMP280;20673;48.980;8.138;2022-09-03T12:31:31;99716.12;;;27.01
34023;BMP280;20673;48.980;8.138;2022-09-03T12:34:01;99720.40;;;27.00
34023;BMP280;20673;48.980;8.138;2022-09-03T12:36:46;99718.33;;;27.55
34023;BMP280;20673;48.980;8.138;2022-09-03T12:39:16;99717.64;;;27.38
34023;BMP280;20673;48.980;8.138;2022-09-03T12:42:05;99719.22;;;27.41
34023;BMP280;20673;48.980;8.138;2022-09-03T12:44:39;99725.47;;;26.84
34023;BMP280;20673;48.980;8.138;2022-09-03T12:47:13;99724.89;;;26.97
34023;BMP280;20673;48.980;8.138;2022-09-03T12:49:42;99732.33;;;26.73
34023;BMP280;20673;48.980;8.138;2022-09-03T12:55:30;99726.01;;;26.46
34023;BMP280;20673;48.980;8.138;2022-09-03T13:06:11;99754.47;;;26.91
34023;BMP280;20673;48.980;8.138;2022-09-03T13:08:56;99754.86;;;26.78
34023;BMP280;20673;48.980;8.138;2022-09-03T13:11:23;99753.03;;;27.40
34023;BMP280;20673;48.980;8.138;2022-09-03T13:14:06;99754.68;;;27.64
34023;BMP280;20673;48.980;8.138;2022-09-03T13:22:36;99750.56;;;27.79
34023;BMP280;20673;48.980;8.138;2022-09-03T13:25:28;99754.61;;;27.93
34023;BMP280;20673;48.980;8.138;2022-09-03T13:34:07;99737.54;;;27.02
34023;BMP280;20673;48.980;8.138;2022-09-03T13:36:44;99719.23;;;26.10
34023;BMP280;20673;48.980;8.138;2022-09-03T13:39:34;99739.36;;;25.62
34023;BMP280;20673;48.980;8.138;2022-09-03T13:42:05;99715.04;;;25.82
34023;BMP280;20673;48.980;8.138;2022-09-03T13:44:54;99718.45;;;25.82
34023;BMP280;20673;48.980;8.138;2022-09-03T13:50:20;99741.15;;;25.95
34023;BMP280;20673;48.980;8.138;2022-09-03T13:55:52;99734.43;;;25.90
34023;BMP280;20673;48.980;8.138;2022-09-03T13:58:30;99744.17;;;25.25
34023;BMP280;20673;48.980;8.138;2022-09-03T14:01:06;99745.79;;;25.03
34023;BMP280;20673;48.980;8.138;2022-09-03T14:09:34;99728.00;;;24.39
34023;BMP280;20673;48.980;8.138;2022-09-03T14:15:21;99723.81;;;24.18
34023;BMP280;20673;48.980;8.138;2022-09-03T14:17:55;99724.51;;;24.15
34023;BMP280;20673;48.980;8.138;2022-09-03T14:20:29;99725.88;;;24.46
34023;BMP280;20673;48.980;8.138;2022-09-03T14:26:06;99739.48;;;24.80
34023;BMP280;20673;48.980;8.138;2022-09-03T14:28:40;99745.64;;;24.33
34023;BMP280;20673;48.980;8.138;2022-09-03T14:35:10;99741.81;;;23.77
34023;BMP280;20673;48.980;8.138;2022-09-03T14:37:57;99748.15;;;23.54
34023;BMP280;20673;48.980;8.138;2022-09-03T14:55:11;99768.73;;;22.97
34023;BMP280;20673;48.980;8.138;2022-09-03T14:58:10;99768.18;;;22.79
34023;BMP280;20673;48.980;8.138;2022-09-03T15:01:03;99770.72;;;22.86
34023;BMP280;20673;48.980;8.138;2022-09-03T15:06:19;99776.39;;;22.66
34023;BMP280;20673;48.980;8.138;2022-09-03T15:09:31;99773.41;;;22.52
34023;BMP280;20673;48.980;8.138;2022-09-03T15:14:56;99780.09;;;22.36
34023;BMP280;20673;48.980;8.138;2022-09-03T15:17:43;99778.18;;;22.34
34023;BMP280;20673;48.980;8.138;2022-09-03T15:20:52;99772.78;;;22.30
34023;BMP280;20673;48.980;8.138;2022-09-03T15:23:55;99775.27;;;22.21
34023;BMP280;20673;48.980;8.138;2022-09-03T15:38:38;99780.03;;;22.00
34023;BMP280;20673;48.980;8.138;2022-09-03T15:40:53;99781.98;;;21.96
34023;BMP280;20673;48.980;8.138;2022-09-03T15:46:09;99781.71;;;21.86
34023;BMP280;20673;48.980;8.138;2022-09-03T15:49:09;99780.45;;;21.91
34023;BMP280;20673;48.980;8.138;2022-09-03T15:54:42;99776.52;;;22.37
34023;BMP280;20673;48.980;8.138;2022-09-03T16:00:08;99775.95;;;23.10
34023;BMP280;20673;48.980;8.138;2022-09-03T16:05:56;99779.58;;;25.10
34023;BMP280;20673;48.980;8.138;2022-09-03T16:08:41;99774.29;;;25.97
34023;BMP280;20673;48.980;8.138;2022-09-03T16:11:29;99776.17;;;25.80
34023;BMP280;20673;48.980;8.138;2022-09-03T16:16:59;99763.31;;;25.90
34023;BMP280;20673;48.980;8.138;2022-09-03T16:20:19;99762.73;;;25.90
34023;BMP280;20673;48.980;8.138;2022-09-03T16:22:31;99763.97;;;26.08
34023;BMP280;20673;48.980;8.138;2022-09-03T16:25:19;99763.40;;;26.22
34023;BMP280;20673;48.980;8.138;2022-09-03T16:28:16;99760.72;;;26.20
34023;BMP280;20673;48.980;8.138;2022-09-03T16:31:27;99762.15;;;26.51
34023;BMP280;20673;48.980;8.138;2022-09-03T16:34:09;99757.51;;;26.58
34023;BMP280;20673;48.980;8.138;2022-09-03T17:08:18;99750.81;;;23.25
34023;BMP280;20673;48.980;8.138;2022-09-03T17:17:27;99754.90;;;22.73
34023;BMP280;20673;48.980;8.138;2022-09-03T17:20:14;99754.31;;;22.61
34023;BMP280;20673;48.980;8.138;2022-09-03T17:22:47;99755.31;;;22.48
34023;BMP280;20673;48.980;8.138;2022-09-03T17:28:08;99764.64;;;22.26
34023;BMP280;20673;48.980;8.138;2022-09-03T17:30:56;99765.62;;;22.13
34023;BMP280;20673;48.980;8.138;2022-09-03T17:36:37;99766.90;;;21.92
34023;BMP280;20673;48.980;8.138;2022-09-03T17:42:15;99769.32;;;21.65
34023;BMP280;20673;48.980;8.138;2022-09-03T17:50:04;99783.76;;;21.31
34023;BMP280;20673;48.980;8.138;2022-09-03T17:52:54;99786.62;;;21.21
34023;BMP280;20673;48.980;8.138;2022-09-03T17:55:41;99793.65;;;21.05
34023;BMP280;20673;48.980;8.138;2022-09-03T17:58:37;99791.45;;;20.92
34023;BMP280;20673;48.980;8.138;2022-09-03T18:01:20;99797.43;;;20.79
34023;BMP280;20673;48.980;8.138;2022-09-03T18:04:30;99802.45;;;20.65
34023;BMP280;20673;48.980;8.138;2022-09-03T18:06:55;99798.53;;;20.50
34023;BMP280;20673;48.980;8.138;2022-09-03T18:09:58;99798.08;;;20.41
34023;BMP280;20673;48.980;8.138;2022-09-03T18:12:48;99803.18;;;20.29
34023;BMP280;20673;48.980;8.138;2022-09-03T18:18:19;99802.91;;;20.04
34023;BMP280;20673;48.980;8.138;2022-09-03T18:20:58;99802.45;;;19.97
34023;BMP280;20673;48.980;8.138;2022-09-03T18:24:34;99809.72;;;19.86
34023;BMP280;20673;48.980;8.138;2022-09-03T18:27:38;99810.97;;;19.73
34023;BMP280;20673;48.980;8.138;2022-09-03T18:30:22;99816.56;;;19.65
34023;BMP280;20673;48.980;8.138;2022-09-03T18:33:06;99820.76;;;19.58
34023;BMP280;20673;48.980;8.138;2022-09-03T18:35:51;99827.73;;;19.48
34023;BMP280;20673;48.980;8.138;2022-09-03T18:38:37;99828.64;;;19.41
34023;BMP280;20673;48.980;8.138;2022-09-03T18:41:39;99833.81;;;19.40
34023;BMP280;20673;48.980;8.138;2022-09-03T18:45:08;99835.84;;;19.31
34023;BMP280;20673;48.980;8.138;2022-09-03T18:54:51;99851.19;;;18.87
34023;BMP280;20673;48.980;8.138;2022-09-03T19:00:38;99856.64;;;18.78
34023;BMP280;20673;48.980;8.138;2022-09-03T19:06:40;99863.70;;;18.64
34023;BMP280;20673;48.980;8.138;2022-09-03T19:22:15;99875.81;;;18.45
34023;BMP280;20673;48.980;8.138;2022-09-03T19:25:09;99873.86;;;18.41
34023;BMP280;20673;48.980;8.138;2022-09-03T19:28:16;99883.66;;;18.39
34023;BMP280;20673;48.980;8.138;2022-09-03T19:41:56;99890.65;;;18.18
34023;BMP280;20673;48.980;8.138;2022-09-03T19:47:07;99897.40;;;18.11
34023;BMP280;20673;48.980;8.138;2022-09-03T19:50:22;99899.79;;;18.01
34023;BMP280;20673;48.980;8.138;2022-09-03T19:53:11;99898.22;;;17.92
34023;BMP280;20673;48.980;8.138;2022-09-03T19:56:21;99902.87;;;17.85
34023;BMP280;20673;48.980;8.138;2022-09-03T19:59:18;99899.56;;;17.80
34023;BMP280;20673;48.980;8.138;2022-09-03T20:02:03;99896.72;;;17.81
34023;BMP280;20673;48.980;8.138;2022-09-03T20:04:58;99902.34;;;17.75
34023;BMP280;20673;48.980;8.138;2022-09-03T20:07:48;99902.41;;;17.80
34023;BMP280;20673;48.980;8.138;2022-09-03T20:10:34;99905.24;;;17.73